Time;durP1;ratioP1;P1;durP2;ratioP2;P2;SDS_P1;SDS_P2;PMS_P1;PMS_P2;Temp;Humidity;BMP_temperature;BMP_pressure;BME280_temperature;BME280_humidity;BME280_pressure;Samples;Min_cycle;Max_cycle;Signal;HPM_P1;HPM_P2
2021/08/10 00:01:36;;;;;;;0.00;0.00;;;;;;;;;;10533102;28;20059;-27
2021/08/10 00:06:39;;;;;;;0.00;0.00;;;;;;;;;;10529317;28;20086;-28
2021/08/10 00:11:42;;;;;;;0.00;0.00;;;;;;;;;;10537985;28;20488;-26
2021/08/10 00:16:46;;;;;;;0.00;0.00;;;;;;;;;;10537958;28;20047;-26
2021/08/10 00:21:49;;;;;;;0.03;0.00;;;;;;;;;;10532786;28;20047;-27
2021/08/10 00:26:52;;;;;;;0.00;0.00;;;;;;;;;;10528956;28;20040;-27
2021/08/10 00:31:56;;;;;;;0.00;0.00;;;;;;;;;;10516475;28;20056;-27
2021/08/10 00:37:00;;;;;;;0.00;0.00;;;;;;;;;;10536065;28;20096;-26
2021/08/10 00:42:04;;;;;;;0.00;0.00;;;;;;;;;;10534819;28;20043;-26
2021/08/10 00:47:09;;;;;;;0.00;0.00;;;;;;;;;;10517554;28;20130;-25
2021/08/10 00:52:12;;;;;;;0.00;0.00;;;;;;;;;;10519691;28;20058;-26
2021/08/10 00:57:15;;;;;;;0.00;0.00;;;;;;;;;;10512350;28;20507;-26
2021/08/10 01:02:19;;;;;;;0.00;0.00;;;;;;;;;;10520982;28;20044;-26
2021/08/10 01:07:27;;;;;;;0.10;0.10;;;;;;;;;;10552818;28;20054;-26
2021/08/10 01:12:32;;;;;;;0.00;0.00;;;;;;;;;;10512651;28;20047;-26
2021/08/10 01:17:42;;;;;;;0.00;0.00;;;;;;;;;;10536964;28;20051;-26
2021/08/10 01:22:47;;;;;;;0.00;0.00;;;;;;;;;;10522072;28;20036;-26
2021/08/10 01:27:55;;;;;;;0.00;0.00;;;;;;;;;;10515749;28;20051;-26
2021/08/10 01:33:00;;;;;;;0.00;0.00;;;;;;;;;;10522218;28;20047;-26
2021/08/10 01:38:05;;;;;;;0.00;0.00;;;;;;;;;;10506500;28;20805;-27
2021/08/10 01:43:08;;;;;;;0.00;0.00;;;;;;;;;;10521220;28;20040;-26
2021/08/10 01:48:14;;;;;;;0.00;0.00;;;;;;;;;;10513247;28;20094;-26
2021/08/10 01:53:18;;;;;;;0.00;0.00;;;;;;;;;;10520760;28;20040;-26
2021/08/10 01:58:21;;;;;;;0.00;0.00;;;;;;;;;;10517910;28;20070;-26
2021/08/10 02:03:28;;;;;;;0.05;0.05;;;;;;;;;;10525318;28;20044;-28
2021/08/10 02:08:41;;;;;;;0.00;0.00;;;;;;;;;;10521477;28;20055;-27
2021/08/10 02:13:45;;;;;;;0.00;0.00;;;;;;;;;;10522036;28;20040;-26
2021/08/10 02:18:50;;;;;;;0.00;0.00;;;;;;;;;;10514304;28;20134;-26
2021/08/10 02:24:02;;;;;;;0.00;0.00;;;;;;;;;;10519305;28;20036;-25
2021/08/10 02:29:07;;;;;;;0.05;0.05;;;;;;;;;;10512863;28;20052;-26
2021/08/10 02:34:11;;;;;;;0.00;0.00;;;;;;;;;;10519123;28;20488;-27
2021/08/10 02:39:15;;;;;;;0.00;0.00;;;;;;;;;;10519701;28;20436;-27
2021/08/10 02:44:19;;;;;;;0.10;0.10;;;;;;;;;;10553323;27;20097;-26
2021/08/10 02:49:23;;;;;;;0.00;0.00;;;;;;;;;;10519695;28;20508;-27
2021/08/10 02:54:26;;;;;;;0.00;0.00;;;;;;;;;;10524756;28;20129;-27
2021/08/10 02:59:31;;;;;;;0.00;0.00;;;;;;;;;;10525982;28;20040;-26
2021/08/10 03:04:37;;;;;;;0.00;0.00;;;;;;;;;;10518252;28;20442;-25
2021/08/10 03:09:41;;;;;;;0.00;0.00;;;;;;;;;;10520240;28;20044;-26
2021/08/10 03:14:45;;;;;;;0.00;0.00;;;;;;;;;;10521341;28;20109;-26
2021/08/10 03:19:49;;;;;;;0.00;0.00;;;;;;;;;;10522328;28;20386;-27
2021/08/10 03:24:54;;;;;;;0.00;0.00;;;;;;;;;;10524493;28;21074;-26
2021/08/10 03:29:57;;;;;;;0.10;0.10;;;;;;;;;;10544089;28;20043;-25
2021/08/10 03:35:02;;;;;;;0.00;0.00;;;;;;;;;;10517971;28;20043;-26
2021/08/10 03:40:06;;;;;;;0.00;0.00;;;;;;;;;;10503894;28;20047;-27
2021/08/10 03:45:09;;;;;;;0.00;0.00;;;;;;;;;;10518408;28;20049;-26
2021/08/10 03:50:14;;;;;;;0.00;0.00;;;;;;;;;;10521564;28;20043;-25
2021/08/10 03:55:17;;;;;;;0.00;0.00;;;;;;;;;;10508116;28;20056;-26
2021/08/10 04:00:20;;;;;;;0.00;0.00;;;;;;;;;;10514169;28;20044;-26
2021/08/10 04:05:33;;;;;;;0.00;0.00;;;;;;;;;;10518709;28;20050;-26
2021/08/10 04:10:39;;;;;;;0.00;0.00;;;;;;;;;;10519378;28;20056;-24
2021/08/10 04:15:44;;;;;;;0.03;0.03;;;;;;;;;;10517968;28;20052;-23
2021/08/10 04:20:49;;;;;;;0.00;0.00;;;;;;;;;;10514277;28;20051;-24
2021/08/10 04:25:52;;;;;;;0.00;0.00;;;;;;;;;;10516185;28;20047;-24
2021/08/10 04:30:55;;;;;;;0.00;0.00;;;;;;;;;;10511393;28;20544;-24
2021/08/10 04:36:01;;;;;;;0.00;0.00;;;;;;;;;;10517274;28;20048;-25
2021/08/10 04:41:04;;;;;;;0.00;0.00;;;;;;;;;;10512396;28;20051;-24
2021/08/10 04:46:20;;;;;;;0.00;0.00;;;;;;;;;;10515796;28;20105;-24
2021/08/10 04:51:25;;;;;;;0.00;0.00;;;;;;;;;;10516932;28;20048;-24
2021/08/10 04:56:28;;;;;;;0.00;0.00;;;;;;;;;;10515519;28;20056;-24
2021/08/10 05:01:31;;;;;;;0.00;0.00;;;;;;;;;;10510375;28;20054;-24
2021/08/10 05:06:37;;;;;;;0.00;0.00;;;;;;;;;;10512722;28;20148;-24
2021/08/10 05:11:41;;;;;;;0.00;0.00;;;;;;;;;;10518479;28;20048;-25
2021/08/10 05:16:44;;;;;;;0.00;0.00;;;;;;;;;;10518005;28;20059;-24
2021/08/10 05:21:48;;;;;;;0.00;0.00;;;;;;;;;;10522961;28;20362;-24
2021/08/10 05:26:51;;;;;;;0.10;0.00;;;;;;;;;;10537799;28;20435;-24
2021/08/10 05:31:56;;;;;;;0.00;0.00;;;;;;;;;;10516813;28;20040;-24
2021/08/10 05:37:06;;;;;;;0.00;0.00;;;;;;;;;;10509582;28;20063;-24
2021/08/10 05:42:13;;;;;;;0.00;0.00;;;;;;;;;;10549581;28;20495;-24
2021/08/10 05:47:17;;;;;;;0.00;0.00;;;;;;;;;;10512537;28;20131;-24
2021/08/10 05:52:22;;;;;;;0.00;0.00;;;;;;;;;;10516398;28;20346;-24
2021/08/10 05:57:24;;;;;;;0.00;0.00;;;;;;;;;;10520814;28;20074;-23
2021/08/10 06:02:30;;;;;;;0.00;0.00;;;;;;;;;;10540042;28;20036;-24
2021/08/10 06:07:36;;;;;;;0.00;0.00;;;;;;;;;;10529073;28;20082;-25
2021/08/10 06:12:38;;;;;;;0.00;0.00;;;;;;;;;;10523088;28;20534;-24
2021/08/10 06:17:43;;;;;;;0.00;0.00;;;;;;;;;;10518212;28;20047;-25
2021/08/10 06:22:48;;;;;;;0.00;0.00;;;;;;;;;;10522742;28;20048;-24
2021/08/10 06:27:53;;;;;;;0.00;0.00;;;;;;;;;;10523453;28;20516;-24
2021/08/10 06:32:57;;;;;;;0.00;0.00;;;;;;;;;;10522726;28;20101;-24
2021/08/10 06:38:01;;;;;;;0.00;0.00;;;;;;;;;;10523050;28;20048;-24
2021/08/10 06:43:11;;;;;;;0.10;0.10;;;;;;;;;;10526739;28;20044;-23
2021/08/10 06:48:14;;;;;;;0.00;0.00;;;;;;;;;;10522300;28;20079;-24
2021/08/10 06:53:19;;;;;;;0.00;0.00;;;;;;;;;;10521954;28;20059;-24
2021/08/10 06:58:26;;;;;;;0.00;0.00;;;;;;;;;;10526161;28;20535;-24
2021/08/10 07:03:29;;;;;;;0.00;0.00;;;;;;;;;;10523677;28;20766;-24
2021/08/10 07:08:33;;;;;;;0.00;0.00;;;;;;;;;;10522757;28;20048;-24
2021/08/10 07:13:38;;;;;;;0.00;0.00;;;;;;;;;;10523791;28;20065;-24
2021/08/10 07:18:41;;;;;;;0.00;0.00;;;;;;;;;;10527828;28;20040;-24
2021/08/10 07:23:50;;;;;;;0.00;0.00;;;;;;;;;;10518892;28;20063;-24
2021/08/10 07:28:53;;;;;;;0.88;0.00;;;;;;;;;;10510274;28;20509;-28
2021/08/10 07:33:57;;;;;;;0.00;0.00;;;;;;;;;;10518231;28;20071;-25
2021/08/10 07:39:04;;;;;;;0.00;0.00;;;;;;;;;;10518145;28;20058;-26
2021/08/10 07:44:08;;;;;;;0.00;0.00;;;;;;;;;;10521801;28;20047;-26
2021/08/10 07:49:17;;;;;;;0.00;0.00;;;;;;;;;;10522218;28;20043;-25
2021/08/10 07:54:21;;;;;;;0.00;0.00;;;;;;;;;;10518567;28;20136;-24
2021/08/10 07:59:24;;;;;;;0.00;0.00;;;;;;;;;;10516403;28;20158;-23
2021/08/10 08:04:27;;;;;;;0.00;0.00;;;;;;;;;;10519284;28;20044;-23
2021/08/10 08:09:31;;;;;;;0.00;0.00;;;;;;;;;;10513204;28;20084;-23
2021/08/10 08:14:34;;;;;;;0.00;0.00;;;;;;;;;;10519899;28;20055;-24
2021/08/10 08:19:37;;;;;;;0.00;0.00;;;;;;;;;;10536452;28;20048;-24
2021/08/10 08:24:42;;;;;;;0.00;0.00;;;;;;;;;;10510749;28;20035;-23
2021/08/10 08:29:46;;;;;;;0.00;0.00;;;;;;;;;;10518944;28;20047;-24
2021/08/10 08:34:49;;;;;;;0.00;0.00;;;;;;;;;;10518923;28;20059;-23
2021/08/10 08:39:54;;;;;;;0.00;0.00;;;;;;;;;;10535973;28;20048;-23
2021/08/10 08:44:57;;;;;;;0.00;0.00;;;;;;;;;;10532953;28;20478;-24
2021/08/10 08:49:59;;;;;;;0.00;0.00;;;;;;;;;;10518457;28;20047;-23
2021/08/10 08:55:09;;;;;;;0.00;0.00;;;;;;;;;;10520704;28;20056;-23
2021/08/10 09:00:13;;;;;;;0.00;0.00;;;;;;;;;;10518421;28;20138;-23
2021/08/10 09:05:17;;;;;;;0.00;0.00;;;;;;;;;;10518364;28;20143;-23
2021/08/10 09:10:28;;;;;;;0.00;0.00;;;;;;;;;;10529440;28;20051;-24
2021/08/10 09:15:36;;;;;;;0.00;0.00;;;;;;;;;;10519214;28;20443;-23
2021/08/10 09:20:57;;;;;;;0.00;0.00;;;;;;;;;;10511937;28;20497;-23
2021/08/10 09:26:02;;;;;;;0.00;0.00;;;;;;;;;;10513785;28;20071;-23
2021/08/10 09:31:24;;;;;;;0.00;0.00;;;;;;;;;;10517325;28;20071;-23
2021/08/10 09:36:28;;;;;;;0.00;0.00;;;;;;;;;;10544531;28;20043;-23
2021/08/10 09:41:33;;;;;;;0.00;0.00;;;;;;;;;;10529092;28;20040;-23
2021/08/10 09:46:37;;;;;;;0.00;0.00;;;;;;;;;;10539407;28;20053;-24
2021/08/10 09:51:42;;;;;;;0.00;0.00;;;;;;;;;;10540720;28;20047;-24
2021/08/10 09:56:51;;;;;;;0.00;0.00;;;;;;;;;;10513267;28;20036;-24
2021/08/10 10:01:57;;;;;;;0.00;0.00;;;;;;;;;;10514372;28;20039;-26
2021/08/10 10:07:09;;;;;;;0.00;0.00;;;;;;;;;;10513240;28;20108;-24
2021/08/10 10:12:16;;;;;;;0.00;0.00;;;;;;;;;;10515617;28;20048;-24
2021/08/10 10:17:20;;;;;;;0.00;0.00;;;;;;;;;;10505736;28;20040;-24
2021/08/10 10:22:24;;;;;;;0.00;0.00;;;;;;;;;;10534799;28;20048;-24
2021/08/10 10:27:28;;;;;;;0.00;0.00;;;;;;;;;;10539084;28;20055;-23
2021/08/10 10:32:31;;;;;;;0.00;0.00;;;;;;;;;;10548132;28;20056;-24
2021/08/10 10:37:34;;;;;;;0.00;0.00;;;;;;;;;;10544354;28;20051;-24
2021/08/10 10:42:39;;;;;;;0.00;0.00;;;;;;;;;;10545451;28;20048;-24
2021/08/10 10:47:42;;;;;;;0.00;0.00;;;;;;;;;;10540232;28;20040;-23
2021/08/10 10:53:05;;;;;;;0.00;0.00;;;;;;;;;;10526558;28;20056;-24
2021/08/10 10:58:29;;;;;;;0.00;0.00;;;;;;;;;;10533904;28;20051;-23
2021/08/10 11:03:31;;;;;;;0.00;0.00;;;;;;;;;;10530569;28;20040;-24
2021/08/10 11:08:38;;;;;;;0.00;0.00;;;;;;;;;;10542397;28;20412;-23
2021/08/10 11:13:42;;;;;;;0.00;0.00;;;;;;;;;;10534145;28;20038;-23
2021/08/10 11:18:45;;;;;;;0.00;0.00;;;;;;;;;;10527271;28;20058;-24
2021/08/10 11:23:48;;;;;;;0.00;0.00;;;;;;;;;;10523062;28;20044;-25
2021/08/10 11:28:55;;;;;;;0.00;0.00;;;;;;;;;;10529612;28;20378;-25
2021/08/10 11:33:58;;;;;;;0.00;0.00;;;;;;;;;;10531608;28;20084;-25
2021/08/10 11:39:10;;;;;;;0.00;0.00;;;;;;;;;;10527477;28;20055;-22
2021/08/10 11:44:21;;;;;;;0.00;0.00;;;;;;;;;;10523149;28;20058;-23
2021/08/10 11:49:24;;;;;;;0.00;0.00;;;;;;;;;;10537645;28;20055;-24
2021/08/10 11:54:26;;;;;;;0.00;0.00;;;;;;;;;;10525551;28;20078;-23
2021/08/10 11:59:30;;;;;;;0.00;0.00;;;;;;;;;;10522871;28;20054;-23
2021/08/10 12:04:38;;;;;;;0.00;0.00;;;;;;;;;;10521484;28;20055;-23
2021/08/10 12:09:43;;;;;;;0.00;0.00;;;;;;;;;;10522507;28;20047;-25
2021/08/10 12:14:47;;;;;;;0.00;0.00;;;;;;;;;;10523461;28;20050;-25
2021/08/10 12:19:50;;;;;;;0.00;0.00;;;;;;;;;;10518412;28;20500;-25
2021/08/10 12:24:55;;;;;;;0.00;0.00;;;;;;;;;;10530097;28;20043;-23
2021/08/10 12:30:00;;;;;;;0.00;0.00;;;;;;;;;;10525122;28;20043;-25
2021/08/10 12:35:08;;;;;;;0.00;0.00;;;;;;;;;;10530208;28;20035;-23
2021/08/10 12:40:14;;;;;;;0.00;0.00;;;;;;;;;;10531368;28;20396;-23
2021/08/10 12:45:19;;;;;;;0.00;0.00;;;;;;;;;;10524539;28;20036;-23
2021/08/10 12:50:24;;;;;;;0.00;0.00;;;;;;;;;;10527671;28;20169;-24
2021/08/10 12:55:27;;;;;;;0.00;0.00;;;;;;;;;;10521766;28;20048;-24
2021/08/10 13:00:31;;;;;;;0.00;0.00;;;;;;;;;;10526787;28;20062;-23
2021/08/10 13:05:37;;;;;;;0.00;0.00;;;;;;;;;;10519678;28;20043;-24
2021/08/10 13:10:41;;;;;;;0.00;0.00;;;;;;;;;;10517772;28;20055;-24
2021/08/10 13:15:46;;;;;;;0.00;0.00;;;;;;;;;;10522644;28;20559;-24
2021/08/10 13:20:50;;;;;;;0.00;0.00;;;;;;;;;;10537408;28;20043;-23
2021/08/10 13:25:57;;;;;;;0.00;0.00;;;;;;;;;;10532290;28;20048;-22
2021/08/10 13:31:15;;;;;;;0.10;0.00;;;;;;;;;;10531087;28;20051;-22
2021/08/10 13:36:18;;;;;;;0.00;0.00;;;;;;;;;;10526417;28;20135;-22
2021/08/10 13:41:22;;;;;;;0.00;0.00;;;;;;;;;;10534495;28;20400;-23
2021/08/10 13:46:28;;;;;;;0.00;0.00;;;;;;;;;;10523585;28;20528;-23
2021/08/10 13:51:32;;;;;;;0.10;0.00;;;;;;;;;;10537134;28;20130;-22
2021/08/10 13:56:34;;;;;;;0.03;0.00;;;;;;;;;;10538414;28;20052;-23
2021/08/10 14:01:45;;;;;;;0.00;0.00;;;;;;;;;;10530477;28;20070;-22
2021/08/10 14:06:49;;;;;;;0.00;0.00;;;;;;;;;;10531079;28;20194;-22
2021/08/10 14:11:52;;;;;;;0.00;0.00;;;;;;;;;;10536161;28;20075;-22
2021/08/10 14:16:56;;;;;;;0.00;0.00;;;;;;;;;;10540204;28;20484;-22
2021/08/10 14:21:59;;;;;;;0.00;0.00;;;;;;;;;;10537542;28;20048;-23
2021/08/10 14:27:03;;;;;;;0.00;0.00;;;;;;;;;;10540415;28;20051;-22
2021/08/10 14:32:07;;;;;;;0.00;0.00;;;;;;;;;;10543903;28;20052;-23
2021/08/10 14:37:10;;;;;;;0.00;0.00;;;;;;;;;;10538223;28;20123;-23
2021/08/10 14:42:14;;;;;;;0.00;0.00;;;;;;;;;;10545445;28;20048;-22
2021/08/10 14:47:18;;;;;;;0.00;0.00;;;;;;;;;;10546933;28;20501;-23
2021/08/10 14:52:20;;;;;;;0.00;0.00;;;;;;;;;;10544349;28;20055;-23
2021/08/10 14:57:23;;;;;;;0.00;0.00;;;;;;;;;;10546492;28;20048;-23
2021/08/10 15:02:27;;;;;;;0.00;0.00;;;;;;;;;;10543784;28;20404;-23
2021/08/10 15:07:30;;;;;;;0.00;0.00;;;;;;;;;;10538213;28;20058;-23
2021/08/10 15:12:32;;;;;;;0.00;0.00;;;;;;;;;;10544982;28;20046;-23
2021/08/10 15:17:37;;;;;;;0.00;0.00;;;;;;;;;;10521466;28;20130;-22
2021/08/10 15:22:40;;;;;;;0.00;0.00;;;;;;;;;;10540334;28;20501;-23
2021/08/10 15:27:44;;;;;;;0.00;0.00;;;;;;;;;;10543459;28;20094;-23
2021/08/10 15:32:50;;;;;;;0.00;0.00;;;;;;;;;;10545099;28;20803;-23
2021/08/10 15:37:54;;;;;;;0.00;0.00;;;;;;;;;;10523286;28;20044;-22
2021/08/10 15:42:57;;;;;;;0.00;0.00;;;;;;;;;;10535935;28;20062;-23
2021/08/10 15:48:01;;;;;;;0.00;0.00;;;;;;;;;;10532523;28;20043;-21
2021/08/10 15:53:04;;;;;;;0.10;0.00;;;;;;;;;;10542277;28;20060;-22
2021/08/10 15:58:07;;;;;;;0.00;0.00;;;;;;;;;;10540591;28;20044;-23
2021/08/10 16:03:11;;;;;;;0.00;0.00;;;;;;;;;;10534348;28;20408;-23
2021/08/10 16:08:16;;;;;;;0.00;0.00;;;;;;;;;;10533703;28;20044;-22
2021/08/10 16:13:20;;;;;;;0.00;0.00;;;;;;;;;;10537075;28;20055;-23
2021/08/10 16:18:24;;;;;;;0.00;0.00;;;;;;;;;;10534307;28;20047;-23
2021/08/10 16:23:27;;;;;;;0.00;0.00;;;;;;;;;;10535609;28;20484;-23
2021/08/10 16:28:30;;;;;;;0.00;0.00;;;;;;;;;;10535626;28;20346;-22
2021/08/10 16:33:34;;;;;;;0.00;0.00;;;;;;;;;;10535827;28;20044;-23
2021/08/10 16:38:37;;;;;;;0.00;0.00;;;;;;;;;;10535208;28;20044;-23
2021/08/10 16:43:40;;;;;;;0.00;0.00;;;;;;;;;;10537012;28;20397;-22
2021/08/10 16:48:44;;;;;;;0.00;0.00;;;;;;;;;;10535804;28;20086;-23
2021/08/10 16:53:46;;;;;;;0.03;0.00;;;;;;;;;;10540094;28;20063;-22
2021/08/10 16:58:49;;;;;;;0.00;0.00;;;;;;;;;;10532281;28;20054;-22
2021/08/10 17:03:53;;;;;;;0.00;0.00;;;;;;;;;;10537481;28;20063;-24
2021/08/10 17:08:56;;;;;;;0.00;0.00;;;;;;;;;;10540192;28;20047;-23
2021/08/10 17:13:58;;;;;;;0.00;0.00;;;;;;;;;;10540063;28;20047;-22
2021/08/10 17:19:02;;;;;;;0.00;0.00;;;;;;;;;;10538069;28;20906;-23
2021/08/10 17:24:06;;;;;;;0.00;0.00;;;;;;;;;;10538532;28;20123;-23
2021/08/10 17:29:11;;;;;;;0.00;0.00;;;;;;;;;;10547681;28;20044;-22
2021/08/10 17:34:16;;;;;;;0.00;0.00;;;;;;;;;;10526889;28;20055;-23
2021/08/10 17:39:18;;;;;;;0.00;0.00;;;;;;;;;;10541942;28;20059;-24
2021/08/10 17:44:21;;;;;;;0.00;0.00;;;;;;;;;;10539690;28;20070;-23
2021/08/10 17:49:25;;;;;;;0.00;0.00;;;;;;;;;;10546288;28;20070;-23
2021/08/10 17:54:27;;;;;;;0.10;0.00;;;;;;;;;;10537150;28;20056;-23
2021/08/10 17:59:32;;;;;;;0.00;0.00;;;;;;;;;;10536625;28;20055;-23
2021/08/10 18:04:36;;;;;;;0.00;0.00;;;;;;;;;;10529154;28;20123;-23
2021/08/10 18:09:39;;;;;;;0.00;0.00;;;;;;;;;;10546864;28;20040;-23
2021/08/10 18:14:42;;;;;;;0.00;0.00;;;;;;;;;;10541910;28;20043;-23
2021/08/10 18:19:46;;;;;;;0.00;0.00;;;;;;;;;;10541969;28;20513;-23
2021/08/10 18:24:48;;;;;;;0.00;0.00;;;;;;;;;;10542703;28;20048;-23
2021/08/10 18:29:51;;;;;;;0.00;0.00;;;;;;;;;;10539893;28;20036;-22
2021/08/10 18:34:55;;;;;;;0.00;0.00;;;;;;;;;;10539037;28;20044;-24
2021/08/10 18:39:58;;;;;;;0.00;0.00;;;;;;;;;;10540768;28;20056;-23
2021/08/10 18:45:07;;;;;;;0.00;0.00;;;;;;;;;;10539781;28;20440;-24
2021/08/10 18:50:11;;;;;;;0.00;0.00;;;;;;;;;;10545733;28;20047;-23
2021/08/10 18:55:14;;;;;;;0.13;0.00;;;;;;;;;;10537431;28;20067;-23
2021/08/10 19:00:17;;;;;;;0.00;0.00;;;;;;;;;;10542003;28;20504;-23
2021/08/10 19:05:22;;;;;;;0.00;0.00;;;;;;;;;;10536449;28;20052;-23
2021/08/10 19:10:24;;;;;;;0.00;0.00;;;;;;;;;;10538440;28;20051;-22
2021/08/10 19:15:28;;;;;;;0.00;0.00;;;;;;;;;;10539676;28;20043;-23
2021/08/10 19:20:34;;;;;;;0.00;0.00;;;;;;;;;;10540142;28;20383;-24
2021/08/10 19:25:37;;;;;;;0.00;0.00;;;;;;;;;;10538123;28;20519;-24
2021/08/10 19:30:39;;;;;;;0.00;0.00;;;;;;;;;;10517474;28;20044;-24
2021/08/10 19:35:44;;;;;;;0.00;0.00;;;;;;;;;;10531685;28;20051;-23
2021/08/10 19:40:46;;;;;;;0.00;0.00;;;;;;;;;;10539353;28;20039;-23
2021/08/10 19:45:53;;;;;;;0.00;0.00;;;;;;;;;;10537921;28;20040;-23
2021/08/10 19:50:57;;;;;;;0.00;0.00;;;;;;;;;;10541848;28;20047;-23
2021/08/10 19:56:00;;;;;;;0.08;0.08;;;;;;;;;;10533735;28;20409;-23
2021/08/10 20:01:03;;;;;;;0.00;0.00;;;;;;;;;;10531273;28;20043;-23
2021/08/10 20:06:08;;;;;;;0.00;0.00;;;;;;;;;;10540277;28;20451;-23
2021/08/10 20:11:11;;;;;;;0.00;0.00;;;;;;;;;;10536303;28;20074;-23
2021/08/10 20:16:16;;;;;;;0.00;0.00;;;;;;;;;;10537244;28;20140;-23
2021/08/10 20:21:21;;;;;;;0.00;0.00;;;;;;;;;;10530626;28;20047;-21
2021/08/10 20:26:24;;;;;;;0.00;0.00;;;;;;;;;;10537251;28;20496;-21
2021/08/10 20:31:28;;;;;;;0.05;0.00;;;;;;;;;;10535328;28;20075;-22
2021/08/10 20:36:33;;;;;;;0.00;0.00;;;;;;;;;;10534175;28;20044;-22
2021/08/10 20:41:38;;;;;;;0.00;0.00;;;;;;;;;;10537016;28;20560;-22
2021/08/10 20:46:43;;;;;;;0.00;0.00;;;;;;;;;;10535689;28;20051;-22
2021/08/10 20:51:48;;;;;;;0.00;0.00;;;;;;;;;;10533586;28;21140;-23
2021/08/10 20:56:51;;;;;;;0.00;0.00;;;;;;;;;;10532005;28;20107;-23
2021/08/10 21:01:54;;;;;;;0.10;0.00;;;;;;;;;;10535167;28;20119;-24
2021/08/10 21:07:00;;;;;;;0.00;0.00;;;;;;;;;;10530388;28;20040;-23
2021/08/10 21:12:03;;;;;;;0.00;0.00;;;;;;;;;;10540053;28;20567;-23
2021/08/10 21:17:07;;;;;;;0.00;0.00;;;;;;;;;;10534117;28;20603;-23
2021/08/10 21:22:13;;;;;;;0.00;0.00;;;;;;;;;;10538641;28;20071;-23
2021/08/10 21:27:17;;;;;;;0.00;0.00;;;;;;;;;;10537210;28;20044;-23
2021/08/10 21:32:24;;;;;;;0.00;0.00;;;;;;;;;;10533951;28;20074;-23
2021/08/10 21:37:30;;;;;;;0.00;0.00;;;;;;;;;;10532844;28;20048;-23
2021/08/10 21:42:33;;;;;;;0.00;0.00;;;;;;;;;;10522039;28;20485;-24
2021/08/10 21:47:37;;;;;;;0.00;0.00;;;;;;;;;;10520024;28;20036;-23
2021/08/10 21:52:42;;;;;;;0.00;0.00;;;;;;;;;;10510803;28;20121;-23
2021/08/10 21:57:46;;;;;;;0.00;0.00;;;;;;;;;;10487367;28;20111;-23
2021/08/10 22:02:50;;;;;;;0.00;0.00;;;;;;;;;;10488521;28;20037;-23
2021/08/10 22:07:56;;;;;;;0.00;0.00;;;;;;;;;;10485303;28;20122;-23
2021/08/10 22:12:59;;;;;;;0.00;0.00;;;;;;;;;;10493370;28;20134;-24
2021/08/10 22:18:03;;;;;;;0.00;0.00;;;;;;;;;;10504712;28;20115;-21
2021/08/10 22:23:08;;;;;;;0.00;0.00;;;;;;;;;;10483397;28;20083;-21
2021/08/10 22:28:12;;;;;;;0.00;0.00;;;;;;;;;;10500283;28;20110;-21
2021/08/10 22:33:17;;;;;;;0.00;0.00;;;;;;;;;;10495890;28;20121;-22
2021/08/10 22:38:21;;;;;;;0.10;0.10;;;;;;;;;;10497120;28;20119;-20
2021/08/10 22:43:27;;;;;;;0.00;0.00;;;;;;;;;;10496009;28;20028;-20
2021/08/10 22:48:30;;;;;;;0.00;0.00;;;;;;;;;;10497609;28;20422;-20
2021/08/10 22:53:36;;;;;;;0.00;0.00;;;;;;;;;;10496567;28;20517;-20
2021/08/10 22:58:39;;;;;;;0.00;0.00;;;;;;;;;;10494447;28;20555;-20
2021/08/10 23:03:42;;;;;;;0.00;0.00;;;;;;;;;;10493162;28;20153;-20
2021/08/10 23:08:47;;;;;;;0.00;0.00;;;;;;;;;;10487287;28;20051;-20
2021/08/10 23:13:50;;;;;;;0.00;0.00;;;;;;;;;;10485046;28;20051;-20
2021/08/10 23:18:54;;;;;;;0.00;0.00;;;;;;;;;;10491338;28;20048;-20
2021/08/10 23:23:59;;;;;;;0.00;0.00;;;;;;;;;;10495311;28;20052;-20
2021/08/10 23:29:02;;;;;;;0.00;0.00;;;;;;;;;;10499922;28;20052;-20
2021/08/10 23:34:06;;;;;;;0.00;0.00;;;;;;;;;;10487434;28;20055;-20
2021/08/10 23:39:11;;;;;;;0.00;0.00;;;;;;;;;;10495161;28;20125;-20
2021/08/10 23:44:14;;;;;;;0.00;0.00;;;;;;;;;;10516704;28;20556;-20
2021/08/10 23:49:17;;;;;;;0.08;0.08;;;;;;;;;;10508520;28;20887;-20
2021/08/10 23:54:22;;;;;;;0.00;0.00;;;;;;;;;;10516998;28;20059;-20
2021/08/10 23:59:26;;;;;;;0.00;0.00;;;;;;;;;;10540540;28;20062;-20
